createdAt,value
2018-08-04T00:02:45.548Z,3.70
2018-08-04T00:05:43.577Z,4.30
2018-08-04T00:08:41.468Z,3.53
2018-08-04T00:11:39.495Z,3.73
2018-08-04T00:14:37.168Z,3.17
2018-08-04T00:17:34.395Z,3.30
2018-08-04T00:20:32.395Z,3.33
2018-08-04T00:23:30.457Z,3.47
2018-08-04T00:26:28.556Z,3.80
2018-08-04T00:29:26.378Z,4.13
2018-08-04T00:32:24.044Z,3.87
2018-08-04T00:35:21.132Z,3.90
2018-08-04T00:38:19.198Z,3.83
2018-08-04T00:41:17.309Z,3.80
2018-08-04T00:44:15.342Z,3.53
2018-08-04T00:47:12.439Z,3.80
2018-08-04T00:50:10.287Z,3.40
2018-08-04T00:53:08.284Z,3.90
2018-08-04T00:56:06.337Z,3.57
2018-08-04T00:59:04.121Z,4.00
2018-08-04T01:02:02.320Z,3.90
2018-08-04T01:04:59.354Z,3.63
2018-08-04T01:07:57.226Z,3.30
2018-08-04T01:10:55.188Z,3.33
2018-08-04T01:13:53.354Z,3.23
2018-08-04T01:16:51.143Z,3.07
2018-08-04T01:19:49.093Z,2.60
2018-08-04T01:22:46.955Z,2.50
2018-08-04T01:25:45.070Z,2.77
2018-08-04T01:28:43.356Z,2.67
2018-08-04T01:31:41.389Z,2.80
2018-08-04T01:34:39.435Z,2.40
2018-08-04T01:37:37.170Z,2.80
2018-08-04T01:40:35.187Z,2.43
2018-08-04T01:43:32.583Z,2.47
2018-08-04T01:46:29.769Z,2.63
2018-08-04T01:49:27.840Z,2.33
2018-08-04T01:52:24.962Z,2.30
2018-08-04T01:55:22.083Z,2.13
2018-08-04T01:58:20.033Z,2.47
2018-08-04T02:01:17.942Z,2.47
2018-08-04T02:04:16.044Z,2.27
2018-08-04T02:07:14.064Z,2.10
2018-08-04T02:10:12.009Z,2.40
2018-08-04T02:13:09.082Z,1.73
2018-08-04T02:16:06.215Z,2.17
2018-08-04T02:19:03.267Z,2.33
2018-08-04T02:22:00.622Z,2.20
2018-08-04T02:24:58.617Z,2.53
2018-08-04T02:27:56.740Z,1.90
2018-08-04T02:30:54.868Z,2.23
2018-08-04T02:33:52.817Z,2.30
2018-08-04T02:36:50.000Z,1.93
2018-08-04T02:39:47.979Z,2.37
2018-08-04T02:42:46.149Z,2.10
2018-08-04T02:45:44.349Z,1.73
2018-08-04T02:48:42.440Z,2.23
2018-08-04T02:51:40.176Z,1.97
2018-08-04T02:54:38.244Z,1.90
2018-08-04T02:57:35.649Z,1.93
2018-08-04T03:00:33.688Z,1.97
2018-08-04T03:03:31.439Z,1.73
2018-08-04T03:06:29.423Z,2.40
2018-08-04T03:09:29.519Z,1.73
2018-08-04T03:12:27.359Z,1.83
2018-08-04T03:15:25.057Z,2.03
2018-08-04T03:18:22.959Z,1.77
2018-08-04T03:21:20.891Z,2.03
2018-08-04T03:24:18.792Z,1.70
2018-08-04T03:27:15.867Z,1.90
2018-08-04T03:30:13.640Z,1.70
2018-08-04T03:33:11.476Z,2.20
2018-08-04T03:36:08.447Z,1.77
2018-08-04T03:39:06.107Z,1.57
2018-08-04T03:42:03.876Z,1.73
2018-08-04T03:45:01.827Z,1.63
2018-08-04T03:47:59.632Z,1.80
2018-08-04T03:50:57.296Z,1.97
2018-08-04T03:53:54.582Z,2.03
2018-08-04T03:56:52.415Z,2.10
2018-08-04T03:59:50.574Z,1.90
2018-08-04T04:02:47.715Z,1.93
2018-08-04T04:05:44.904Z,2.13
2018-08-04T04:08:42.072Z,1.70
2018-08-04T04:11:40.048Z,2.00
2018-08-04T04:14:38.048Z,2.13
2018-08-04T04:17:40.194Z,2.20
2018-08-04T04:20:37.443Z,1.83
2018-08-04T04:23:35.437Z,2.07
2018-08-04T04:26:33.403Z,2.17
2018-08-04T04:29:31.462Z,2.23
2018-08-04T04:32:29.588Z,2.00
2018-08-04T04:35:27.527Z,2.00
2018-08-04T04:38:25.260Z,1.87
2018-08-04T04:41:23.268Z,1.60
2018-08-04T04:44:21.317Z,1.90
2018-08-04T04:47:19.358Z,1.70
2018-08-04T04:50:16.604Z,2.07
2018-08-04T04:53:14.247Z,1.80
2018-08-04T04:56:12.221Z,2.00
2018-08-04T04:59:09.379Z,2.30
2018-08-04T05:02:07.556Z,2.23
2018-08-04T05:05:05.419Z,2.30
2018-08-04T05:08:03.504Z,2.00
2018-08-04T05:11:01.449Z,2.23
2018-08-04T05:13:58.540Z,1.80
2018-08-04T05:16:55.747Z,2.10
2018-08-04T05:19:53.140Z,2.07
2018-08-04T05:22:51.227Z,2.23
2018-08-04T05:25:49.185Z,2.33
2018-08-04T05:28:47.166Z,2.37
2018-08-04T05:31:45.244Z,2.20
2018-08-04T05:34:42.927Z,2.73
2018-08-04T05:37:40.895Z,2.20
2018-08-04T05:40:38.952Z,1.90
2018-08-04T05:43:37.181Z,2.27
2018-08-04T05:46:35.049Z,2.30
2018-08-04T05:49:33.212Z,2.20
2018-08-04T05:52:31.176Z,2.30
2018-08-04T05:55:29.270Z,2.50
2018-08-04T05:58:26.424Z,2.47
2018-08-04T06:01:24.323Z,2.63
2018-08-04T06:04:22.402Z,2.37
2018-08-04T06:07:19.680Z,2.30
2018-08-04T06:10:17.675Z,2.50
2018-08-04T06:13:15.636Z,2.77
2018-08-04T06:16:13.751Z,3.10
2018-08-04T06:19:10.900Z,3.20
2018-08-04T06:22:08.739Z,2.60
2018-08-04T06:25:05.822Z,2.97
2018-08-04T06:28:03.548Z,3.10
2018-08-04T06:31:00.860Z,3.00
2018-08-04T06:33:58.859Z,2.77
2018-08-04T06:36:56.791Z,2.90
2018-08-04T06:39:54.676Z,2.67
2018-08-04T06:42:52.753Z,2.80
2018-08-04T06:45:50.817Z,3.90
2018-08-04T06:48:48.899Z,3.63
2018-08-04T06:51:47.074Z,2.70
2018-08-04T06:54:44.932Z,2.90
2018-08-04T06:57:42.789Z,2.83
2018-08-04T07:00:40.633Z,2.50
2018-08-04T07:03:37.851Z,3.00
2018-08-04T07:06:35.697Z,3.03
2018-08-04T07:09:35.855Z,2.80
2018-08-04T07:12:33.737Z,2.77
2018-08-04T07:15:31.887Z,3.10
2018-08-04T07:18:28.863Z,2.80
2018-08-04T07:21:26.836Z,3.17
2018-08-04T07:24:24.691Z,3.03
2018-08-04T07:27:21.925Z,2.73
2018-08-04T07:30:21.991Z,2.83
2018-08-04T07:33:19.831Z,3.08
2018-08-04T07:36:18.038Z,2.98
2018-08-04T07:39:16.855Z,3.17
2018-08-04T07:42:14.294Z,2.87
2018-08-04T07:45:12.353Z,3.10
2018-08-04T07:48:10.377Z,2.70
2018-08-04T07:51:08.290Z,3.10
2018-08-04T07:54:06.378Z,3.20
2018-08-04T07:57:04.274Z,2.87
2018-08-04T08:00:02.252Z,3.10
2018-08-04T08:03:00.307Z,2.80
2018-08-04T08:05:57.939Z,2.60
2018-08-04T08:08:55.879Z,2.08
2018-08-04T08:11:53.082Z,2.27
2018-08-04T08:14:51.184Z,2.67
2018-08-04T08:17:49.126Z,2.27
2018-08-04T08:20:46.994Z,2.10
2018-08-04T08:23:44.054Z,2.50
2018-08-04T08:26:42.143Z,2.40
2018-08-04T08:29:39.259Z,1.80
2018-08-04T08:32:37.098Z,2.05
2018-08-04T08:35:35.079Z,1.52
2018-08-04T08:38:32.145Z,1.82
2018-08-04T08:41:30.355Z,1.87
2018-08-04T08:44:28.359Z,1.85
2018-08-04T08:47:25.468Z,1.40
2018-08-04T08:50:24.420Z,1.60
2018-08-04T08:53:22.508Z,1.80
2018-08-04T08:56:20.692Z,1.72
2018-08-04T08:59:17.884Z,1.50
2018-08-04T09:02:15.073Z,1.52
2018-08-04T09:05:13.356Z,1.90
2018-08-04T09:08:11.283Z,1.70
2018-08-04T09:11:08.326Z,1.80
2018-08-04T09:14:06.307Z,1.90
2018-08-04T09:17:04.249Z,2.17
2018-08-04T09:20:02.133Z,2.02
2018-08-04T09:23:00.164Z,1.62
2018-08-04T09:25:57.655Z,1.90
2018-08-04T09:28:55.713Z,1.98
2018-08-04T09:31:53.520Z,1.90
2018-08-04T09:34:50.932Z,1.75
2018-08-04T09:37:48.848Z,1.55
2018-08-04T09:40:46.331Z,1.60
2018-08-04T09:43:43.947Z,1.80
2018-08-04T09:46:41.339Z,1.70
2018-08-04T09:49:39.493Z,1.82
2018-08-04T09:52:36.826Z,1.77
2018-08-04T09:55:33.973Z,2.25
2018-08-04T09:58:31.563Z,1.80
2018-08-04T10:01:35.783Z,1.60
2018-08-04T10:04:33.886Z,1.60
2018-08-04T10:07:31.943Z,1.57
2018-08-04T10:10:29.943Z,1.40
2018-08-04T10:13:28.039Z,1.98
2018-08-04T10:16:25.879Z,1.47
2018-08-04T10:19:23.804Z,1.70
2018-08-04T10:22:21.784Z,1.98
2018-08-04T10:25:19.473Z,1.82
2018-08-04T10:28:16.650Z,1.85
2018-08-04T10:31:14.540Z,1.80
2018-08-04T10:34:12.689Z,1.55
2018-08-04T10:37:10.444Z,1.75
2018-08-04T10:40:07.813Z,1.75
2018-08-04T10:43:05.081Z,1.70
2018-08-04T10:46:02.735Z,1.87
2018-08-04T10:49:00.568Z,2.20
2018-08-04T10:51:58.175Z,2.02
2018-08-04T10:54:55.631Z,1.82
2018-08-04T10:57:53.639Z,1.87
2018-08-04T11:00:51.712Z,1.70
2018-08-04T11:03:49.328Z,1.50
2018-08-04T11:06:47.347Z,2.00
2018-08-04T11:09:45.343Z,1.85
2018-08-04T11:12:42.602Z,1.90
2018-08-04T11:15:40.675Z,2.00
2018-08-04T11:18:38.516Z,1.90
2018-08-04T11:21:36.645Z,1.77
2018-08-04T11:24:34.339Z,2.30
2018-08-04T11:27:32.439Z,1.95
2018-08-04T11:30:31.256Z,2.00
2018-08-04T11:33:29.223Z,1.82
2018-08-04T11:36:27.105Z,2.27
2018-08-04T11:39:25.263Z,2.02
2018-08-04T11:42:23.339Z,1.80
2018-08-04T11:45:21.311Z,2.17
2018-08-04T11:48:18.583Z,1.90
2018-08-04T11:51:16.506Z,2.00
2018-08-04T11:54:13.980Z,2.20
2018-08-04T11:57:11.458Z,2.15
2018-08-04T12:00:08.444Z,2.20
2018-08-04T12:03:06.113Z,2.05
2018-08-04T12:06:03.236Z,2.33
2018-08-04T12:09:00.708Z,2.23
2018-08-04T12:11:57.933Z,2.10
2018-08-04T12:14:55.411Z,2.30
2018-08-04T12:17:52.890Z,2.23
2018-08-04T12:20:50.033Z,1.77
2018-08-04T12:23:47.277Z,2.15
2018-08-04T12:26:45.355Z,1.75
2018-08-04T12:29:43.135Z,1.70
2018-08-04T12:32:41.232Z,2.20
2018-08-04T12:35:39.148Z,2.30
2018-08-04T12:38:37.071Z,2.07
2018-08-04T12:41:34.314Z,2.10
2018-08-04T12:44:32.422Z,2.27
2018-08-04T12:47:30.478Z,1.70
2018-08-04T12:50:28.249Z,2.10
2018-08-04T12:53:26.325Z,1.97
2018-08-04T12:56:24.279Z,2.40
2018-08-04T12:59:21.964Z,2.13
2018-08-04T13:02:19.944Z,2.03
2018-08-04T13:05:17.421Z,1.80
2018-08-04T13:08:14.564Z,2.20
2018-08-04T13:11:11.850Z,2.40
2018-08-04T13:14:09.255Z,2.17
2018-08-04T13:17:06.329Z,2.27
2018-08-04T13:20:03.491Z,2.30
2018-08-04T13:23:01.054Z,1.73
2018-08-04T13:25:58.606Z,2.20
2018-08-04T13:28:56.286Z,2.53
2018-08-04T13:31:54.416Z,1.60
2018-08-04T13:34:52.340Z,1.77
2018-08-04T13:37:50.009Z,2.27
2018-08-04T13:40:47.877Z,2.10
2018-08-04T13:43:45.519Z,1.90
2018-08-04T13:46:50.871Z,2.03
2018-08-04T13:49:48.226Z,1.80
2018-08-04T13:52:46.213Z,1.90
2018-08-04T13:55:43.419Z,1.70
2018-08-04T13:58:41.494Z,1.60
2018-08-04T14:01:39.472Z,1.57
2018-08-04T14:04:37.656Z,1.73
2018-08-04T14:07:35.687Z,1.80
2018-08-04T14:10:32.723Z,2.43
2018-08-04T14:13:30.359Z,1.80
2018-08-04T14:16:27.753Z,1.97
2018-08-04T14:19:24.971Z,1.77
2018-08-04T14:22:22.264Z,2.20
2018-08-04T14:25:19.928Z,1.70
2018-08-04T14:28:17.187Z,1.85
2018-08-04T14:31:14.555Z,1.77
2018-08-04T14:34:11.915Z,1.50
2018-08-04T14:37:09.098Z,1.92
2018-08-04T14:40:06.539Z,1.90
2018-08-04T14:43:03.819Z,1.55
2018-08-04T14:46:01.342Z,1.50
2018-08-04T14:48:59.276Z,1.70
2018-08-04T14:51:57.275Z,1.82
2018-08-04T14:54:55.191Z,1.60
2018-08-04T14:57:53.150Z,1.87
2018-08-04T15:00:50.395Z,1.80
2018-08-04T15:03:48.605Z,1.65
2018-08-04T15:06:46.568Z,1.87
2018-08-04T15:09:43.802Z,1.60
2018-08-04T15:12:41.984Z,1.70
2018-08-04T15:15:39.907Z,1.83
2018-08-04T15:18:37.746Z,1.75
2018-08-04T15:21:34.937Z,1.50
2018-08-04T15:24:32.367Z,1.65
2018-08-04T15:27:30.174Z,1.47
2018-08-04T15:30:27.702Z,1.50
2018-08-04T15:33:25.056Z,1.65
2018-08-04T15:36:22.198Z,1.57
2018-08-04T15:39:21.454Z,1.50
2018-08-04T15:42:18.478Z,1.62
2018-08-04T15:45:15.651Z,1.40
2018-08-04T15:48:13.080Z,1.17
2018-08-04T15:51:10.351Z,1.30
2018-08-04T15:54:07.789Z,1.00
2018-08-04T15:57:04.939Z,1.20
2018-08-04T16:00:01.965Z,1.60
2018-08-04T16:03:00.092Z,1.40
2018-08-04T16:05:57.969Z,1.82
2018-08-04T16:08:56.808Z,1.25
2018-08-04T16:11:54.019Z,1.20
2018-08-04T16:14:52.111Z,1.87
2018-08-04T16:17:50.227Z,2.10
2018-08-04T16:20:48.128Z,1.97
2018-08-04T16:23:46.123Z,1.50
2018-08-04T16:26:44.042Z,1.33
2018-08-04T16:29:41.167Z,1.80
2018-08-04T16:32:38.395Z,1.47
2018-08-04T16:35:36.383Z,1.50
2018-08-04T16:38:33.523Z,1.60
2018-08-04T16:41:31.140Z,1.80
2018-08-04T16:44:28.256Z,1.80
2018-08-04T16:47:25.586Z,2.00
2018-08-04T16:50:23.568Z,1.70
2018-08-04T16:53:20.974Z,2.00
2018-08-04T16:56:17.981Z,2.10
2018-08-04T16:59:15.619Z,2.20
2018-08-04T17:02:12.955Z,1.60
2018-08-04T17:05:10.604Z,1.90
2018-08-04T17:08:07.771Z,2.10
2018-08-04T17:11:04.986Z,1.80
2018-08-04T17:14:02.868Z,2.00
2018-08-04T17:17:00.863Z,1.90
2018-08-04T17:19:58.929Z,1.90
2018-08-04T17:22:57.008Z,2.20
2018-08-04T17:25:54.383Z,2.03
2018-08-04T17:28:52.316Z,2.60
2018-08-04T17:31:50.213Z,2.20
2018-08-04T17:34:47.367Z,2.30
2018-08-04T17:37:45.607Z,1.80
2018-08-04T17:40:43.639Z,1.90
2018-08-04T17:43:40.558Z,1.80
2018-08-04T17:46:37.816Z,1.90
2018-08-04T17:49:35.388Z,2.30
2018-08-04T17:52:32.328Z,2.00
2018-08-04T17:55:29.551Z,2.40
2018-08-04T17:58:26.947Z,2.13
2018-08-04T18:01:24.623Z,2.20
2018-08-04T18:04:22.388Z,2.17
2018-08-04T18:07:19.666Z,2.20
2018-08-04T18:10:17.044Z,2.03
2018-08-04T18:13:15.107Z,2.20
2018-08-04T18:16:13.107Z,2.00
2018-08-04T18:19:10.527Z,2.40
2018-08-04T18:22:07.776Z,1.73
2018-08-04T18:25:05.659Z,2.17
2018-08-04T18:28:03.740Z,2.73
2018-08-04T18:31:00.972Z,2.40
2018-08-04T18:33:58.140Z,2.43
2018-08-04T18:36:55.591Z,2.27
2018-08-04T18:39:52.950Z,2.60
2018-08-04T18:42:49.996Z,2.47
2018-08-04T18:45:47.871Z,2.67
2018-08-04T18:48:44.957Z,2.50
2018-08-04T18:51:43.055Z,2.43
2018-08-04T18:54:40.383Z,2.70
2018-08-04T18:57:37.622Z,2.30
2018-08-04T19:00:34.898Z,2.37
2018-08-04T19:03:32.409Z,2.90
2018-08-04T19:06:29.664Z,2.67
2018-08-04T19:09:29.710Z,2.83
2018-08-04T19:12:26.771Z,3.00
2018-08-04T19:15:24.173Z,2.67
2018-08-04T19:18:21.643Z,3.30
2018-08-04T19:21:19.114Z,2.70
2018-08-04T19:24:16.138Z,2.50
2018-08-04T19:27:14.120Z,2.70
2018-08-04T19:30:11.780Z,2.67
2018-08-04T19:33:08.894Z,2.87
2018-08-04T19:36:07.060Z,2.87
2018-08-04T19:39:05.062Z,3.00
2018-08-04T19:42:03.070Z,2.80
2018-08-04T19:45:01.125Z,2.70
2018-08-04T19:47:58.584Z,3.20
2018-08-04T19:50:55.760Z,3.17
2018-08-04T19:53:52.801Z,2.70
2018-08-04T19:56:50.860Z,2.70
2018-08-04T19:59:47.967Z,3.30
2018-08-04T20:02:45.575Z,2.90
2018-08-04T20:05:43.362Z,3.17
2018-08-04T20:08:41.316Z,3.00
2018-08-04T20:11:39.444Z,2.73
2018-08-04T20:14:36.897Z,2.93
2018-08-04T20:17:34.212Z,3.00
2018-08-04T20:20:31.400Z,2.77
2018-08-04T20:23:29.000Z,2.80
2018-08-04T20:26:26.124Z,3.07
2018-08-04T20:29:24.361Z,2.87
2018-08-04T20:32:21.864Z,2.90
2018-08-04T20:35:19.325Z,2.70
2018-08-04T20:38:16.537Z,2.57
2018-08-04T20:41:14.663Z,2.67
2018-08-04T20:44:12.636Z,2.83
2018-08-04T20:47:10.835Z,2.70
2018-08-04T20:50:08.880Z,2.97
2018-08-04T20:53:06.302Z,2.50
2018-08-04T20:56:03.843Z,2.60
2018-08-04T20:59:01.668Z,2.43
2018-08-04T21:02:33.280Z,2.17
2018-08-04T21:05:30.459Z,2.40
2018-08-04T21:08:27.853Z,2.73
2018-08-04T21:11:25.848Z,2.73
2018-08-04T21:14:23.715Z,2.43
2018-08-04T21:17:20.856Z,2.50
2018-08-04T21:20:18.535Z,2.60
2018-08-04T21:23:15.597Z,2.17
2018-08-04T21:26:13.044Z,2.50
2018-08-04T21:29:10.289Z,2.17
2018-08-04T21:32:07.949Z,1.97
2018-08-04T21:35:05.631Z,1.83
2018-08-04T21:38:02.715Z,1.93
2018-08-04T21:40:59.872Z,2.00
2018-08-04T21:43:57.205Z,2.23
2018-08-04T21:46:57.499Z,1.70
2018-08-04T21:49:54.854Z,2.10
2018-08-04T21:52:51.828Z,2.30
2018-08-04T21:55:49.821Z,1.90
2018-08-04T21:58:47.907Z,2.10
2018-08-04T22:01:45.889Z,2.00
2018-08-04T22:04:43.729Z,2.47
2018-08-04T22:08:02.056Z,1.90
2018-08-04T22:11:00.086Z,2.00
2018-08-04T22:13:57.531Z,1.93
2018-08-04T22:16:54.880Z,2.17
2018-08-04T22:19:52.110Z,1.87
2018-08-04T22:22:49.191Z,1.83
2018-08-04T22:25:47.234Z,1.90
2018-08-04T22:28:44.232Z,1.80
2018-08-04T22:31:41.669Z,1.90
2018-08-04T22:34:39.360Z,2.00
2018-08-04T22:37:36.976Z,1.73
2018-08-04T22:40:34.536Z,1.77
2018-08-04T22:43:31.926Z,1.83
2018-08-04T22:46:31.981Z,1.90
2018-08-04T22:49:29.120Z,2.40
2018-08-04T22:52:27.195Z,1.80
2018-08-04T22:55:24.376Z,2.00
2018-08-04T22:58:22.252Z,1.63
2018-08-04T23:01:19.538Z,1.77
2018-08-04T23:04:17.598Z,2.23
2018-08-04T23:07:15.640Z,1.80
2018-08-04T23:10:13.811Z,1.80
2018-08-04T23:13:11.770Z,1.77
2018-08-04T23:16:09.882Z,1.70
2018-08-04T23:19:07.947Z,1.90
2018-08-04T23:22:06.114Z,2.13
2018-08-04T23:25:04.012Z,2.10
2018-08-04T23:28:01.936Z,2.10
2018-08-04T23:30:59.537Z,1.90
2018-08-04T23:33:57.195Z,2.23
2018-08-04T23:36:54.465Z,2.37
2018-08-04T23:39:51.999Z,1.97
2018-08-04T23:42:50.011Z,1.80
2018-08-04T23:45:47.932Z,1.90
2018-08-04T23:48:45.147Z,2.07
2018-08-04T23:51:42.692Z,1.97
2018-08-04T23:54:40.047Z,1.90
2018-08-04T23:57:38.111Z,2.13
